Terminal Aerodrome Forecast
Issued by NWS

Home | Current Version | Previous Version | Text Only | Print | Product List | Glossary Off
Versions: 1 2 3 4 5 6 7 8 9 10 11 12 13 14 15 16 17 18 19 20

000
FTUS43 KICT 250335 AAB
TAFRSL
TAF AMD
KRSL 250335Z 2504/2524 03011KT P6SM VCTS SCT025CB BKN090
      TEMPO 2504/2506 6SM -TSRA BKN018CB OVC060
     FM251200 31012KT P6SM SKC
     FM251900 36010KT P6SM SCT050=

USA.gov is the U.S. government's official web portal to all federal, state and local government web resources and services.